< < Back
Terminal Aerodrome Forecast


Current Version              Previous Versions:   1  2  3  4  5  6  7  8  9  

Terminal Aerodrome Forecast

215
FTUS42 KGSP 012335
TAFCLT
TAF
KCLT 012335Z 0200/0224 00000KT P6SM FEW060
     FM021600 25004KT P6SM SCT060
     FM022000 25005KT P6SM BKN060=

Latest METAR

852
SAUS70 KWBC 020600 RRB
MTRCLT
METAR KCLT 020552Z 00000KT 10SM FEW250 24/19 A3010 RMK AO2 SLP183
T02390194 10294 20228 50001


USA.gov is the U.S. government's official web portal to all federal, state and local government web resources and services.